Time;durP1;ratioP1;P1;durP2;ratioP2;P2;SDS_P1;SDS_P2;PMS_P1;PMS_P2;Temp;Humidity;BMP_temperature;BMP_pressure;BME280_temperature;BME280_humidity;BME280_pressure;Samples;Min_cycle;Max_cycle;Signal;HPM_P1;HPM_P2
2021/11/06 00:02:16;;;;;;;1.30;0.70;;;22.30;40.20;;;;;;5033119;28;20087;-47
2021/11/06 00:04:42;;;;;;;1.65;0.70;;;22.30;40.20;;;;;;5032534;28;20034;-46
2021/11/06 00:07:08;;;;;;;0.85;0.63;;;22.40;40.20;;;;;;5034368;28;20436;-49
2021/11/06 00:09:33;;;;;;;1.20;0.60;;;22.30;40.20;;;;;;5016937;28;20025;-50
2021/11/06 00:11:59;;;;;;;1.23;0.80;;;22.30;40.20;;;;;;5035873;28;20037;-50
2021/11/06 00:14:25;;;;;;;1.13;0.60;;;22.30;40.20;;;;;;5035600;28;20136;-47
2021/11/06 00:16:53;;;;;;;0.80;0.57;;;22.30;40.20;;;;;;5017220;28;20049;-48
2021/11/06 00:19:19;;;;;;;3.28;1.23;;;22.30;40.20;;;;;;5032614;28;20095;-48
2021/11/06 00:21:44;;;;;;;0.73;0.50;;;22.20;40.20;;;;;;5034163;28;20034;-47
2021/11/06 00:24:11;;;;;;;1.48;0.80;;;22.20;40.20;;;;;;5025924;28;20429;-49
2021/11/06 00:26:37;;;;;;;1.80;0.90;;;22.20;40.20;;;;;;5015263;28;20108;-48
2021/11/06 00:29:04;;;;;;;0.80;0.60;;;22.20;40.20;;;;;;5027682;28;20120;-48
2021/11/06 00:31:30;;;;;;;1.42;0.45;;;22.20;40.20;;;;;;5029466;28;20042;-48
2021/11/06 00:33:56;;;;;;;1.83;0.75;;;22.20;40.20;;;;;;5033007;28;20539;-48
2021/11/06 00:36:24;;;;;;;1.90;0.80;;;22.20;40.20;;;;;;5035213;28;20044;-47
2021/11/06 00:38:50;;;;;;;0.77;0.63;;;22.10;40.20;;;;;;5022633;28;20151;-47
2021/11/06 00:41:16;;;;;;;1.33;0.60;;;22.10;40.20;;;;;;5019103;28;20083;-47
2021/11/06 00:43:42;;;;;;;1.23;0.70;;;22.10;40.20;;;;;;5033534;28;20034;-46
2021/11/06 00:46:08;;;;;;;1.20;0.80;;;22.10;40.20;;;;;;5024048;28;20334;-53
2021/11/06 00:48:34;;;;;;;1.27;0.68;;;22.10;40.20;;;;;;5018981;28;20029;-46
2021/11/06 00:51:00;;;;;;;0.90;0.63;;;22.10;40.20;;;;;;5021325;28;20040;-46
2021/11/06 00:53:26;;;;;;;1.13;0.68;;;22.10;40.10;;;;;;5033749;28;20045;-47
2021/11/06 00:55:52;;;;;;;1.40;0.88;;;22.10;40.10;;;;;;5034866;28;20423;-46
2021/11/06 00:58:17;;;;;;;0.90;0.80;;;22.10;40.10;;;;;;5033320;28;20468;-46
2021/11/06 01:00:43;;;;;;;0.93;0.60;;;22.10;40.10;;;;;;5015362;28;20394;-46
2021/11/06 01:03:09;;;;;;;1.42;0.63;;;22.10;40.10;;;;;;5018769;28;20092;-50
2021/11/06 01:05:35;;;;;;;1.17;0.60;;;22.10;40.10;;;;;;5024623;28;20111;-46
2021/11/06 01:08:01;;;;;;;1.25;0.80;;;22.00;40.00;;;;;;5015292;28;20407;-46
2021/11/06 01:10:28;;;;;;;2.97;0.80;;;22.00;40.00;;;;;;5014342;28;20040;-47
2021/11/06 01:12:54;;;;;;;1.13;0.65;;;22.00;40.00;;;;;;5029768;28;20110;-49
2021/11/06 01:15:19;;;;;;;1.63;0.80;;;22.00;40.00;;;;;;5017499;28;20437;-47
2021/11/06 01:17:45;;;;;;;0.80;0.50;;;22.00;40.00;;;;;;5018151;28;20175;-50
2021/11/06 01:20:12;;;;;;;0.75;0.57;;;22.00;40.00;;;;;;5034360;28;20033;-50
2021/11/06 01:22:39;;;;;;;1.92;0.77;;;22.00;40.00;;;;;;5033611;28;20096;-48
2021/11/06 01:25:06;;;;;;;1.15;0.63;;;22.00;40.00;;;;;;5015062;28;20049;-51
2021/11/06 01:27:33;;;;;;;1.30;0.70;;;21.90;39.90;;;;;;5014801;28;20034;-48
2021/11/06 01:29:58;;;;;;;0.55;0.52;;;21.90;39.90;;;;;;5030245;28;20025;-47
2021/11/06 01:32:24;;;;;;;1.90;1.10;;;22.00;40.00;;;;;;5025605;28;20428;-46
2021/11/06 01:34:50;;;;;;;0.88;0.70;;;21.90;39.90;;;;;;5033835;28;20037;-46
2021/11/06 01:37:15;;;;;;;1.15;0.88;;;21.90;39.90;;;;;;5034086;28;20036;-45
2021/11/06 01:39:41;;;;;;;1.35;0.80;;;21.90;39.90;;;;;;5032951;28;20033;-46
2021/11/06 01:42:07;;;;;;;1.20;0.80;;;21.90;39.90;;;;;;5026129;28;20350;-46
2021/11/06 01:44:33;;;;;;;1.77;1.00;;;21.90;39.90;;;;;;5015902;28;20037;-46
2021/11/06 01:47:00;;;;;;;1.17;0.63;;;21.80;39.90;;;;;;5018967;28;20045;-47
2021/11/06 01:49:26;;;;;;;2.17;1.10;;;21.80;39.80;;;;;;5028917;28;20113;-49
2021/11/06 01:51:53;;;;;;;0.80;0.80;;;21.80;39.80;;;;;;5020025;28;20079;-47
2021/11/06 01:54:23;;;;;;;0.90;0.70;;;21.80;39.80;;;;;;5033443;28;20064;-48
2021/11/06 01:56:50;;;;;;;2.00;1.20;;;21.80;39.80;;;;;;5034359;28;20033;-51
2021/11/06 01:59:16;;;;;;;1.05;0.80;;;21.80;39.80;;;;;;5016689;28;20041;-46
2021/11/06 02:01:42;;;;;;;1.17;0.70;;;21.80;39.80;;;;;;5021028;28;20021;-47
2021/11/06 02:04:07;;;;;;;0.85;0.73;;;21.80;39.80;;;;;;5018158;28;20029;-47
2021/11/06 02:06:33;;;;;;;1.58;0.80;;;21.80;39.80;;;;;;5023687;28;20022;-47
2021/11/06 02:08:59;;;;;;;1.02;0.73;;;21.70;39.70;;;;;;5019190;28;20124;-50
2021/11/06 02:11:26;;;;;;;1.08;0.70;;;21.70;39.70;;;;;;5026635;28;20471;-48
2021/11/06 02:13:52;;;;;;;1.20;0.77;;;21.70;39.70;;;;;;5019275;28;20037;-46
2021/11/06 02:16:18;;;;;;;1.75;1.00;;;21.70;39.80;;;;;;5021504;28;20025;-47
2021/11/06 02:18:47;;;;;;;0.60;0.50;;;21.70;39.80;;;;;;5017947;28;20064;-46
2021/11/06 02:21:13;;;;;;;0.93;0.68;;;21.70;39.70;;;;;;5017997;28;20022;-50
2021/11/06 02:23:42;;;;;;;1.45;1.00;;;21.70;39.70;;;;;;5017999;28;20458;-50
2021/11/06 02:26:10;;;;;;;1.33;0.93;;;21.70;39.70;;;;;;5018042;28;20030;-47
2021/11/06 02:28:36;;;;;;;1.42;0.93;;;21.70;39.70;;;;;;5033740;28;20037;-47
2021/11/06 02:31:02;;;;;;;1.50;0.77;;;21.70;39.70;;;;;;5036662;28;20033;-47
2021/11/06 02:33:28;;;;;;;0.90;0.63;;;21.70;39.70;;;;;;5028546;28;20049;-46
2021/11/06 02:35:54;;;;;;;1.45;0.90;;;21.70;39.70;;;;;;5031098;28;20029;-46
2021/11/06 02:38:21;;;;;;;1.20;1.00;;;21.70;39.70;;;;;;5017706;28;20453;-48
2021/11/06 02:40:47;;;;;;;1.80;0.90;;;21.70;39.70;;;;;;5017362;28;20353;-48
2021/11/06 02:43:13;;;;;;;1.77;1.08;;;21.60;39.60;;;;;;5032709;28;20095;-48
2021/11/06 02:45:39;;;;;;;1.50;1.02;;;21.60;39.60;;;;;;5034873;28;20037;-46
2021/11/06 02:48:06;;;;;;;2.25;1.15;;;21.70;39.70;;;;;;5037397;28;20440;-46
2021/11/06 02:50:32;;;;;;;2.13;1.20;;;21.60;39.60;;;;;;5022408;28;20057;-47
2021/11/06 02:52:59;;;;;;;2.08;1.30;;;21.60;39.60;;;;;;5034037;28;20056;-46
2021/11/06 02:55:25;;;;;;;1.98;1.27;;;21.60;39.60;;;;;;5023216;28;20034;-52
2021/11/06 02:57:51;;;;;;;1.85;1.02;;;21.60;39.60;;;;;;5023423;28;20480;-47
2021/11/06 03:00:18;;;;;;;3.10;1.20;;;21.60;39.60;;;;;;5033564;28;20087;-47
2021/11/06 03:02:43;;;;;;;2.30;1.23;;;21.60;39.70;;;;;;5025523;28;20113;-47
2021/11/06 03:05:13;;;;;;;2.72;1.48;;;21.60;39.70;;;;;;5022334;28;20406;-48
2021/11/06 03:07:39;;;;;;;3.00;1.50;;;21.50;39.60;;;;;;5017299;28;20030;-47
2021/11/06 03:10:07;;;;;;;2.25;1.23;;;21.50;39.60;;;;;;5016583;28;20180;-47
2021/11/06 03:12:34;;;;;;;3.20;1.70;;;21.50;39.60;;;;;;5018291;28;20113;-46
2021/11/06 03:15:00;;;;;;;3.17;1.73;;;21.50;39.60;;;;;;5033328;28;20163;-46
2021/11/06 03:17:27;;;;;;;2.92;1.65;;;21.50;39.60;;;;;;5036255;28;20545;-46
2021/11/06 03:19:53;;;;;;;3.20;1.85;;;21.50;39.60;;;;;;5024935;28;20057;-47
2021/11/06 03:22:19;;;;;;;4.05;2.03;;;21.50;39.70;;;;;;5027446;28;20130;-48
2021/11/06 03:24:45;;;;;;;3.15;1.77;;;21.50;39.70;;;;;;5035323;28;20083;-47
2021/11/06 03:27:11;;;;;;;3.22;1.77;;;21.40;39.70;;;;;;5023255;28;20034;-47
2021/11/06 03:29:37;;;;;;;3.67;2.10;;;21.40;39.70;;;;;;5016761;28;20029;-47
2021/11/06 03:32:04;;;;;;;2.60;1.67;;;21.50;39.70;;;;;;5024937;28;20341;-48
2021/11/06 03:34:29;;;;;;;3.38;1.90;;;21.40;39.70;;;;;;5035406;28;20041;-47
2021/11/06 03:36:56;;;;;;;3.75;1.98;;;21.40;39.60;;;;;;5019174;28;20121;-46
2021/11/06 03:39:21;;;;;;;4.43;2.30;;;21.40;39.60;;;;;;5030151;28;20344;-47
2021/11/06 03:41:47;;;;;;;4.70;2.53;;;21.40;39.60;;;;;;5021340;28;20044;-47
2021/11/06 03:44:13;;;;;;;3.53;1.95;;;21.40;39.60;;;;;;5016270;28;20029;-47
2021/11/06 03:46:40;;;;;;;3.03;1.90;;;21.40;39.60;;;;;;5016677;28;20117;-45
2021/11/06 03:49:05;;;;;;;3.53;1.95;;;21.40;39.60;;;;;;5031895;28;20040;-47
2021/11/06 03:51:31;;;;;;;3.20;2.10;;;21.40;39.60;;;;;;5032214;28;20349;-48
2021/11/06 03:53:57;;;;;;;3.05;1.85;;;21.40;39.60;;;;;;5015789;28;20069;-48
2021/11/06 03:56:23;;;;;;;2.78;1.75;;;21.40;39.60;;;;;;5017444;28;20117;-46
2021/11/06 03:58:50;;;;;;;2.50;1.80;;;21.40;39.60;;;;;;5027596;28;20029;-47
2021/11/06 04:01:16;;;;;;;2.45;1.65;;;21.40;39.60;;;;;;5021095;28;20103;-47
2021/11/06 04:03:42;;;;;;;3.28;1.85;;;21.40;39.60;;;;;;5032689;28;20029;-47
2021/11/06 04:06:09;;;;;;;3.85;2.03;;;21.40;39.60;;;;;;5028861;28;20045;-50
2021/11/06 04:08:34;;;;;;;3.22;1.73;;;21.40;39.60;;;;;;5034312;28;20025;-47
2021/11/06 04:11:00;;;;;;;4.07;2.10;;;21.40;39.60;;;;;;5035519;28;20498;-48
2021/11/06 04:13:26;;;;;;;3.80;2.00;;;21.40;39.70;;;;;;5029308;28;20041;-46
2021/11/06 04:15:52;;;;;;;2.58;1.70;;;21.40;39.60;;;;;;5036071;28;20095;-47
2021/11/06 04:18:18;;;;;;;3.78;2.10;;;21.30;39.60;;;;;;5034115;28;20041;-48
2021/11/06 04:20:44;;;;;;;2.65;1.65;;;21.30;39.60;;;;;;5034610;28;20029;-46
2021/11/06 04:23:09;;;;;;;2.60;1.63;;;21.30;39.60;;;;;;5032953;28;20029;-47
2021/11/06 04:25:35;;;;;;;3.25;1.85;;;21.30;39.60;;;;;;5035548;28;20068;-46
2021/11/06 04:28:01;;;;;;;2.92;1.98;;;21.30;39.60;;;;;;5024180;28;20025;-46
2021/11/06 04:30:28;;;;;;;3.15;1.70;;;21.30;39.60;;;;;;5015497;28;20479;-47
2021/11/06 04:32:53;;;;;;;3.17;1.90;;;21.30;39.60;;;;;;5026105;28;20048;-47
2021/11/06 04:35:19;;;;;;;3.22;1.73;;;21.30;39.60;;;;;;5027129;28;20068;-47
2021/11/06 04:37:45;;;;;;;2.58;1.65;;;21.30;39.60;;;;;;5027130;28;20459;-49
2021/11/06 04:40:13;;;;;;;4.32;2.00;;;21.30;39.70;;;;;;5015325;28;20043;-47
2021/11/06 04:42:40;;;;;;;2.30;1.40;;;21.30;39.60;;;;;;5025274;28;20099;-48
2021/11/06 04:45:07;;;;;;;3.53;2.10;;;21.30;39.60;;;;;;5034899;28;20036;-48
2021/11/06 04:47:33;;;;;;;2.53;1.58;;;21.30;39.60;;;;;;5026079;28;20412;-48
2021/11/06 04:49:59;;;;;;;3.53;1.98;;;21.30;39.70;;;;;;5016375;28;20109;-46
2021/11/06 04:52:26;;;;;;;4.07;1.65;;;21.30;39.60;;;;;;5021543;28;20042;-47
2021/11/06 04:54:52;;;;;;;3.13;1.90;;;21.20;39.60;;;;;;5015472;28;20065;-48
2021/11/06 04:57:18;;;;;;;2.38;1.80;;;21.20;39.60;;;;;;5019463;28;20041;-47
2021/11/06 04:59:44;;;;;;;2.42;1.45;;;21.20;39.70;;;;;;5031821;28;20030;-47
2021/11/06 05:02:10;;;;;;;3.20;1.67;;;21.20;39.60;;;;;;5025421;28;20499;-47
2021/11/06 05:04:37;;;;;;;3.25;1.60;;;21.20;39.60;;;;;;5016794;28;20109;-49
2021/11/06 05:07:03;;;;;;;6.18;1.65;;;21.20;39.60;;;;;;5031410;28;20033;-48
2021/11/06 05:09:29;;;;;;;2.72;1.60;;;21.20;39.60;;;;;;5034602;28;20037;-47
2021/11/06 05:11:55;;;;;;;2.30;1.40;;;21.20;39.60;;;;;;5015495;28;20384;-48
2021/11/06 05:14:20;;;;;;;3.03;1.77;;;21.20;39.50;;;;;;5014584;28;20038;-49
2021/11/06 05:16:48;;;;;;;3.00;1.90;;;21.20;39.50;;;;;;5015312;28;20025;-48
2021/11/06 05:19:15;;;;;;;3.53;1.60;;;21.20;39.50;;;;;;5028945;28;20084;-48
2021/11/06 05:21:41;;;;;;;2.65;1.70;;;21.20;39.50;;;;;;5031678;28;20040;-47
2021/11/06 05:24:08;;;;;;;3.75;2.00;;;21.20;39.50;;;;;;5014798;28;20034;-47
2021/11/06 05:26:35;;;;;;;2.85;1.65;;;21.20;39.50;;;;;;5014907;28;20437;-47
2021/11/06 05:29:04;;;;;;;2.00;1.30;;;21.20;39.50;;;;;;5030175;28;20363;-49
2021/11/06 05:31:31;;;;;;;2.47;1.40;;;21.20;39.50;;;;;;5020406;28;20472;-48
2021/11/06 05:33:57;;;;;;;3.20;1.70;;;21.20;39.50;;;;;;5018626;28;20038;-47
2021/11/06 05:36:23;;;;;;;3.08;1.80;;;21.20;39.50;;;;;;5017260;28;20483;-47
2021/11/06 05:38:49;;;;;;;2.75;1.60;;;21.20;39.50;;;;;;5030202;28;20018;-49
2021/11/06 05:41:16;;;;;;;3.13;1.70;;;21.20;39.60;;;;;;5038589;28;20021;-47
2021/11/06 05:43:42;;;;;;;3.95;2.45;;;21.20;39.60;;;;;;5018726;28;20048;-47
2021/11/06 05:46:08;;;;;;;2.83;1.65;;;21.20;39.60;;;;;;5018542;28;20034;-47
2021/11/06 05:48:33;;;;;;;3.22;1.52;;;21.20;39.60;;;;;;5028422;28;20033;-48
2021/11/06 05:50:59;;;;;;;2.47;1.63;;;21.10;39.60;;;;;;5038668;28;20029;-47
2021/11/06 05:53:25;;;;;;;2.10;1.65;;;21.20;39.60;;;;;;5037200;28;20479;-48
2021/11/06 05:55:51;;;;;;;2.85;1.60;;;21.10;39.60;;;;;;5020100;28;20069;-47
2021/11/06 05:58:16;;;;;;;2.58;1.60;;;21.10;39.70;;;;;;5033053;28;20104;-47
2021/11/06 06:00:42;;;;;;;2.28;1.50;;;21.20;39.80;;;;;;5036735;28;20111;-49
2021/11/06 06:03:08;;;;;;;3.17;1.65;;;21.10;39.70;;;;;;5030674;28;20136;-47
2021/11/06 06:05:34;;;;;;;2.65;1.40;;;21.10;39.70;;;;;;5022773;28;20033;-46
2021/11/06 06:07:59;;;;;;;1.77;1.30;;;21.10;39.80;;;;;;5034393;28;20453;-47
2021/11/06 06:10:25;;;;;;;2.22;1.45;;;21.10;39.80;;;;;;5036441;28;20037;-46
2021/11/06 06:12:52;;;;;;;4.70;1.52;;;21.10;39.80;;;;;;5035748;28;20103;-47
2021/11/06 06:15:22;;;;;;;2.85;1.65;;;21.10;39.90;;;;;;5016944;28;20034;-47
2021/11/06 06:17:49;;;;;;;1.88;1.45;;;21.10;39.90;;;;;;5025055;28;20408;-47
2021/11/06 06:20:15;;;;;;;2.25;1.35;;;21.10;39.90;;;;;;5037812;28;20029;-47
2021/11/06 06:22:41;;;;;;;2.92;1.67;;;21.10;40.00;;;;;;5037772;28;20136;-46
2021/11/06 06:25:09;;;;;;;2.47;1.52;;;21.10;39.90;;;;;;5021803;28;20056;-48
2021/11/06 06:27:36;;;;;;;2.35;1.23;;;21.10;40.00;;;;;;5027490;28;20037;-46
2021/11/06 06:30:03;;;;;;;2.53;1.40;;;21.10;40.00;;;;;;5017676;28;20099;-47
2021/11/06 06:32:28;;;;;;;4.32;1.75;;;21.10;40.00;;;;;;5027489;28;20037;-46
2021/11/06 06:34:54;;;;;;;2.58;1.48;;;21.10;40.00;;;;;;5016502;28;20046;-48
2021/11/06 06:37:20;;;;;;;1.73;1.20;;;21.10;40.10;;;;;;5023577;28;20489;-47
2021/11/06 06:39:46;;;;;;;2.63;1.35;;;21.10;40.10;;;;;;5017855;28;20107;-48
2021/11/06 06:42:13;;;;;;;1.70;1.27;;;21.10;40.20;;;;;;5017754;28;20038;-49
2021/11/06 06:44:38;;;;;;;2.28;1.77;;;21.10;40.20;;;;;;5016675;28;20429;-49
2021/11/06 06:47:05;;;;;;;1.67;1.42;;;21.10;40.20;;;;;;5020724;28;20033;-46
2021/11/06 06:49:31;;;;;;;2.13;1.30;;;21.10;40.10;;;;;;5017580;28;20396;-49
2021/11/06 06:51:56;;;;;;;2.08;1.25;;;21.10;40.20;;;;;;5017273;28;20133;-47
2021/11/06 06:54:23;;;;;;;2.08;1.30;;;21.10;40.10;;;;;;5032253;28;20060;-51
2021/11/06 06:56:50;;;;;;;2.50;1.55;;;21.10;40.20;;;;;;5036069;28;20034;-45
2021/11/06 06:59:15;;;;;;;2.22;1.50;;;21.10;40.10;;;;;;5028673;28;20037;-46
2021/11/06 07:01:41;;;;;;;2.80;1.63;;;21.00;40.10;;;;;;5031183;28;20364;-48
2021/11/06 07:04:07;;;;;;;2.22;1.30;;;21.00;40.10;;;;;;5025892;28;20045;-50
2021/11/06 07:06:33;;;;;;;2.50;1.55;;;21.00;40.10;;;;;;5028852;28;20495;-46
2021/11/06 07:09:00;;;;;;;2.17;1.25;;;21.00;40.40;;;;;;5021631;28;20069;-47
2021/11/06 07:11:26;;;;;;;2.13;1.33;;;21.10;40.20;;;;;;5023809;28;20102;-51
2021/11/06 07:13:52;;;;;;;2.55;1.30;;;21.10;40.20;;;;;;5035536;28;20467;-47
2021/11/06 07:16:18;;;;;;;1.40;1.00;;;21.00;40.10;;;;;;5030293;28;20069;-46
2021/11/06 07:18:44;;;;;;;1.90;1.30;;;21.00;40.10;;;;;;5021939;28;20057;-52
2021/11/06 07:21:10;;;;;;;2.42;1.40;;;21.00;40.20;;;;;;5031620;28;20041;-47
2021/11/06 07:23:36;;;;;;;2.85;1.20;;;21.00;40.80;;;;;;5028403;28;20091;-48
2021/11/06 07:26:03;;;;;;;1.40;1.13;;;21.00;40.20;;;;;;5035613;28;20041;-51
2021/11/06 07:28:30;;;;;;;2.30;1.38;;;21.00;40.20;;;;;;5035334;28;20029;-48
2021/11/06 07:30:57;;;;;;;1.85;1.25;;;21.00;40.20;;;;;;5018161;28;20045;-49
2021/11/06 07:33:26;;;;;;;2.15;1.23;;;21.00;40.20;;;;;;5017792;28;20042;-55
2021/11/06 07:35:52;;;;;;;2.20;1.35;;;21.00;40.20;;;;;;5019820;28;20099;-47
2021/11/06 07:38:20;;;;;;;2.47;1.77;;;21.00;40.30;;;;;;5018647;28;20021;-49
2021/11/06 07:40:48;;;;;;;2.53;1.30;;;21.00;40.20;;;;;;5031046;28;20029;-52
2021/11/06 07:43:15;;;;;;;1.83;1.30;;;21.00;40.20;;;;;;5022157;28;20021;-48
2021/11/06 07:45:41;;;;;;;1.70;1.27;;;21.00;40.20;;;;;;5016213;28;20022;-46
2021/11/06 07:48:07;;;;;;;2.28;1.45;;;21.00;40.30;;;;;;5023943;28;20045;-49
2021/11/06 07:50:32;;;;;;;2.45;1.35;;;21.00;40.30;;;;;;5025330;28;20029;-47
2021/11/06 07:52:59;;;;;;;1.75;1.20;;;21.00;40.30;;;;;;5022156;28;20045;-47
2021/11/06 07:55:25;;;;;;;1.73;1.15;;;21.00;41.00;;;;;;5022725;28;20034;-48
2021/11/06 07:57:50;;;;;;;1.52;1.30;;;21.00;40.40;;;;;;5030545;28;20104;-46
2021/11/06 08:00:20;;;;;;;1.92;1.33;;;21.00;40.40;;;;;;5016379;28;20032;-47
2021/11/06 08:02:46;;;;;;;2.70;1.25;;;21.00;40.40;;;;;;5026275;28;20337;-47
2021/11/06 08:05:15;;;;;;;1.35;1.08;;;20.90;40.40;;;;;;5027130;28;20088;-49
2021/11/06 08:07:41;;;;;;;1.55;1.08;;;21.00;40.50;;;;;;5024702;28;20036;-46
2021/11/06 08:10:10;;;;;;;1.85;1.35;;;20.90;40.40;;;;;;5034706;28;20034;-47
2021/11/06 08:12:38;;;;;;;1.63;1.23;;;21.00;40.50;;;;;;5023530;28;20067;-51
2021/11/06 08:15:06;;;;;;;2.60;1.50;;;20.90;40.50;;;;;;5018353;28;20117;-48
2021/11/06 08:17:32;;;;;;;2.63;1.30;;;20.90;40.50;;;;;;5015018;28;20101;-51
2021/11/06 08:19:58;;;;;;;1.20;0.88;;;21.00;40.60;;;;;;5015010;28;20125;-46
2021/11/06 08:22:24;;;;;;;1.92;1.20;;;21.00;40.60;;;;;;5029574;28;20069;-49
2021/11/06 08:24:49;;;;;;;2.28;1.50;;;21.00;40.60;;;;;;5022741;28;20040;-47
2021/11/06 08:27:15;;;;;;;1.75;1.20;;;21.00;40.70;;;;;;5019360;28;20018;-48
2021/11/06 08:29:41;;;;;;;1.35;1.00;;;21.00;40.60;;;;;;5025594;28;20090;-47
2021/11/06 08:32:08;;;;;;;1.85;1.20;;;20.90;40.60;;;;;;5021999;28;20026;-47
2021/11/06 08:34:33;;;;;;;1.63;1.20;;;21.00;40.70;;;;;;5021316;28;20040;-53
2021/11/06 08:37:00;;;;;;;2.25;1.30;;;21.00;40.70;;;;;;5024460;28;20453;-47
2021/11/06 08:39:27;;;;;;;1.98;1.20;;;20.90;40.70;;;;;;5022442;28;20144;-48
2021/11/06 08:41:55;;;;;;;2.25;1.20;;;21.00;40.80;;;;;;5022787;28;20334;-51
2021/11/06 08:44:22;;;;;;;2.47;1.45;;;21.00;40.70;;;;;;5021050;28;20033;-46
2021/11/06 08:46:50;;;;;;;2.22;1.10;;;21.00;40.70;;;;;;5016993;28;20041;-49
2021/11/06 08:49:17;;;;;;;2.55;1.17;;;21.00;40.70;;;;;;5024223;28;20352;-47
2021/11/06 08:51:51;;;;;;;1.70;1.17;;;21.00;40.70;;;;;;5016800;28;20033;-48
2021/11/06 08:54:18;;;;;;;1.95;1.38;;;21.00;40.70;;;;;;5026251;28;20049;-49
2021/11/06 08:56:45;;;;;;;1.80;1.15;;;21.00;40.70;;;;;;5024468;28;20087;-48
2021/11/06 08:59:13;;;;;;;1.70;1.10;;;21.00;40.70;;;;;;5022663;28;20144;-48
2021/11/06 09:01:39;;;;;;;1.65;1.20;;;21.00;40.80;;;;;;5018993;28;20029;-47
2021/11/06 09:04:05;;;;;;;1.95;1.20;;;20.90;40.70;;;;;;5019771;28;20088;-47
2021/11/06 09:06:33;;;;;;;1.38;0.93;;;20.90;40.80;;;;;;5019387;28;20026;-47
2021/11/06 09:09:06;;;;;;;1.58;0.98;;;21.00;40.90;;;;;;5016677;28;20037;-51
2021/11/06 09:11:32;;;;;;;1.90;0.90;;;21.00;40.90;;;;;;5016068;28;20030;-47
2021/11/06 09:13:59;;;;;;;1.42;0.80;;;21.10;40.90;;;;;;5028913;28;21595;-48
2021/11/06 09:16:25;;;;;;;1.15;0.80;;;21.10;40.80;;;;;;5023889;28;20033;-48
2021/11/06 09:18:52;;;;;;;1.10;0.90;;;21.20;41.40;;;;;;5022056;28;20107;-46
2021/11/06 09:21:21;;;;;;;2.15;0.88;;;21.30;40.70;;;;;;5019783;28;20026;-48
2021/11/06 09:23:50;;;;;;;1.27;0.95;;;21.40;40.60;;;;;;5021732;28;20479;-48
2021/11/06 09:26:16;;;;;;;0.85;0.52;;;21.50;40.50;;;;;;5024018;28;20353;-47
2021/11/06 09:28:42;;;;;;;1.27;0.80;;;21.60;40.40;;;;;;5024682;28;20096;-51
2021/11/06 09:31:12;;;;;;;1.98;0.70;;;21.70;40.30;;;;;;5022484;28;20105;-47
2021/11/06 09:33:39;;;;;;;0.80;0.70;;;21.80;40.30;;;;;;5033178;28;20725;-49
2021/11/06 09:36:05;;;;;;;1.05;0.82;;;21.90;40.20;;;;;;5022990;28;20081;-50
2021/11/06 09:38:31;;;;;;;1.58;0.90;;;22.00;40.10;;;;;;5025423;28;20029;-49
2021/11/06 09:41:02;;;;;;;1.33;1.00;;;22.00;40.00;;;;;;5021862;28;20040;-47
2021/11/06 09:43:28;;;;;;;1.10;0.82;;;22.10;39.90;;;;;;5017573;28;20038;-48
2021/11/06 09:45:56;;;;;;;1.30;0.90;;;22.10;39.90;;;;;;5017265;28;20034;-54
2021/11/06 09:48:23;;;;;;;1.42;0.90;;;22.10;39.80;;;;;;5023065;28;20038;-50
2021/11/06 09:50:49;;;;;;;1.55;0.90;;;22.20;39.80;;;;;;5014526;28;20038;-46
2021/11/06 09:53:16;;;;;;;1.23;0.90;;;22.20;39.80;;;;;;5018786;28;20044;-50
2021/11/06 09:55:43;;;;;;;1.05;0.80;;;22.20;39.70;;;;;;5016613;28;20038;-46
2021/11/06 09:58:09;;;;;;;2.05;1.00;;;22.30;39.70;;;;;;5020433;28;20068;-46
2021/11/06 10:00:37;;;;;;;1.58;1.10;;;22.30;39.60;;;;;;5017068;28;20022;-47
2021/11/06 10:03:04;;;;;;;1.17;0.80;;;22.40;39.60;;;;;;5020369;28;20042;-47
2021/11/06 10:05:56;;;;;;;0.98;0.85;;;22.40;39.60;;;;;;5024716;28;20036;-49
2021/11/06 10:08:47;;;;;;;1.98;0.90;;;22.50;39.50;;;;;;5017349;28;20033;-51
2021/11/06 10:11:28;;;;;;;1.80;1.10;;;22.50;39.50;;;;;;5025957;28;20025;-49
2021/11/06 10:14:04;;;;;;;0.88;0.80;;;22.60;39.40;;;;;;5017916;28;20046;-47
2021/11/06 10:16:49;;;;;;;1.20;0.60;;;22.60;39.40;;;;;;5025245;28;20025;-50
2021/11/06 10:19:21;;;;;;;1.48;0.90;;;22.60;39.30;;;;;;5028479;28;20021;-49
2021/11/06 10:22:04;;;;;;;1.27;0.82;;;22.70;39.40;;;;;;5026406;28;20029;-48
2021/11/06 10:25:11;;;;;;;1.50;0.82;;;22.70;39.30;;;;;;5023108;28;20096;-49
2021/11/06 10:27:39;;;;;;;1.95;1.27;;;22.70;39.20;;;;;;5020363;28;20407;-47
2021/11/06 10:30:23;;;;;;;2.63;0.90;;;22.80;39.30;;;;;;5023147;28;20022;-53
2021/11/06 10:33:17;;;;;;;1.65;0.80;;;22.80;39.10;;;;;;5017049;28;20393;-49
2021/11/06 10:35:46;;;;;;;1.20;0.80;;;22.90;39.10;;;;;;5019654;28;20916;-47
2021/11/06 10:38:16;;;;;;;0.80;0.70;;;22.90;39.20;;;;;;5022136;28;20429;-46
2021/11/06 10:41:14;;;;;;;2.80;0.60;;;23.00;39.20;;;;;;5027630;28;20029;-49
2021/11/06 10:43:55;;;;;;;1.98;0.90;;;23.10;39.20;;;;;;5020350;28;20029;-49
2021/11/06 10:46:34;;;;;;;2.80;0.80;;;23.10;39.10;;;;;;5015802;28;20030;-46
2021/11/06 10:49:23;;;;;;;1.23;0.88;;;23.20;39.10;;;;;;5031531;28;20036;-47
2021/11/06 10:52:13;;;;;;;0.88;0.70;;;23.20;39.70;;;;;;5015420;28;20096;-61
2021/11/06 10:55:04;;;;;;;0.88;0.60;;;23.20;39.00;;;;;;5019794;28;20475;-49
2021/11/06 10:57:34;;;;;;;1.58;0.65;;;23.30;38.90;;;;;;5015632;28;20022;-50
2021/11/06 11:00:19;;;;;;;0.85;0.70;;;23.30;39.00;;;;;;5026294;28;20137;-51
2021/11/06 11:02:49;;;;;;;1.70;0.70;;;23.30;38.90;;;;;;5015456;28;20040;-52
2021/11/06 11:05:35;;;;;;;0.82;0.50;;;23.30;39.00;;;;;;5019166;28;20030;-48
2021/11/06 11:08:01;;;;;;;1.80;0.82;;;23.40;38.90;;;;;;5028682;28;20376;-52
2021/11/06 11:10:28;;;;;;;1.98;0.80;;;23.30;39.00;;;;;;5021277;28;20034;-52
2021/11/06 11:13:22;;;;;;;2.47;0.90;;;23.30;39.00;;;;;;5021433;28;20109;-52
2021/11/06 11:15:53;;;;;;;1.27;0.90;;;23.40;39.00;;;;;;5022289;28;20121;-48
2021/11/06 11:18:37;;;;;;;1.48;0.90;;;23.30;39.10;;;;;;5014763;28;20480;-51
2021/11/06 11:21:17;;;;;;;1.67;0.93;;;23.30;39.10;;;;;;5015131;28;20034;-48
2021/11/06 11:23:50;;;;;;;1.30;0.90;;;23.20;39.10;;;;;;5024272;28;20021;-54
2021/11/06 11:26:22;;;;;;;2.13;0.95;;;23.20;39.20;;;;;;5025332;28;20025;-55
2021/11/06 11:28:50;;;;;;;1.45;0.90;;;23.10;39.20;;;;;;5014757;28;20034;-47
2021/11/06 11:31:20;;;;;;;1.55;1.05;;;23.10;39.30;;;;;;5018122;28;20036;-52
2021/11/06 11:33:47;;;;;;;1.73;0.98;;;23.00;39.40;;;;;;5017583;28;20033;-52
2021/11/06 11:36:17;;;;;;;1.77;0.93;;;23.00;39.40;;;;;;5028731;28;20036;-56
2021/11/06 11:38:44;;;;;;;1.83;1.05;;;23.00;39.40;;;;;;5027612;28;20100;-53
2021/11/06 11:41:16;;;;;;;0.80;0.80;;;22.90;39.50;;;;;;5019579;28;20025;-50
2021/11/06 11:43:46;;;;;;;1.17;0.75;;;22.90;39.50;;;;;;5017162;28;20033;-53
2021/11/06 11:46:20;;;;;;;2.90;0.90;;;22.90;39.50;;;;;;5018286;28;20022;-53
2021/11/06 11:48:54;;;;;;;1.35;0.82;;;22.90;39.50;;;;;;5015905;28;20402;-52
2021/11/06 11:51:32;;;;;;;1.25;0.65;;;22.90;39.60;;;;;;5020435;28;20083;-55
2021/11/06 11:54:12;;;;;;;1.08;0.60;;;22.90;39.60;;;;;;5016729;28;20052;-59
2021/11/06 11:56:40;;;;;;;0.70;0.60;;;22.90;39.70;;;;;;5014755;28;20026;-59
2021/11/06 11:59:28;;;;;;;1.38;0.70;;;22.80;39.70;;;;;;5017000;28;20330;-57
2021/11/06 12:02:22;;;;;;;1.67;0.80;;;22.80;39.70;;;;;;5019606;28;20022;-60
2021/11/06 12:05:15;;;;;;;1.63;0.73;;;22.80;39.70;;;;;;5016971;28;20030;-54
2021/11/06 12:07:45;;;;;;;2.13;0.90;;;22.80;39.70;;;;;;5019138;28;20025;-57
2021/11/06 12:10:24;;;;;;;2.13;0.90;;;22.80;39.70;;;;;;5015488;28;20509;-58
2021/11/06 12:12:52;;;;;;;1.95;0.80;;;22.80;39.60;;;;;;5015005;28;20026;-56
2021/11/06 12:15:18;;;;;;;1.02;0.70;;;22.80;39.70;;;;;;5016257;28;20044;-56
2021/11/06 12:17:45;;;;;;;0.93;0.70;;;22.90;39.70;;;;;;5018097;28;20036;-55
2021/11/06 12:20:31;;;;;;;0.80;0.70;;;22.90;39.60;;;;;;5019514;28;20022;-58
2021/11/06 12:23:00;;;;;;;1.45;0.70;;;22.90;39.60;;;;;;5016056;28;20338;-51
2021/11/06 12:25:26;;;;;;;1.05;0.65;;;22.90;39.50;;;;;;5014345;28;20454;-56
2021/11/06 12:27:55;;;;;;;1.23;0.77;;;23.00;39.60;;;;;;5018574;28;20115;-54
2021/11/06 12:30:29;;;;;;;0.85;0.57;;;23.00;39.50;;;;;;5016949;28;20348;-56
2021/11/06 12:32:57;;;;;;;1.25;0.60;;;23.10;39.50;;;;;;5017530;28;20100;-56
2021/11/06 12:35:25;;;;;;;1.17;0.70;;;23.10;39.50;;;;;;5013209;28;20216;-50
2021/11/06 12:37:52;;;;;;;1.63;0.70;;;23.10;39.50;;;;;;5021650;28;20119;-54
2021/11/06 12:40:39;;;;;;;1.48;0.80;;;23.10;39.40;;;;;;5017852;28;20102;-51
2021/11/06 12:43:09;;;;;;;1.67;0.73;;;23.10;39.40;;;;;;5007328;28;20184;-57
2021/11/06 12:45:36;;;;;;;0.80;0.60;;;23.10;39.50;;;;;;5014427;28;20038;-58
2021/11/06 12:48:14;;;;;;;1.10;0.65;;;23.10;39.50;;;;;;5016354;28;20026;-53
2021/11/06 12:50:41;;;;;;;1.17;0.60;;;23.10;39.50;;;;;;5015075;28;20021;-54
2021/11/06 12:53:09;;;;;;;1.45;0.80;;;23.00;39.60;;;;;;5017638;28;20052;-58
2021/11/06 12:55:38;;;;;;;1.10;0.75;;;23.00;39.70;;;;;;5014338;28;20050;-50